createdAt,value
2024-04-22T00:01:32.063Z,99119.31
2024-04-22T00:04:01.639Z,99089.03
2024-04-22T00:06:28.800Z,99123.41
2024-04-22T00:08:58.734Z,99124.38
2024-04-22T00:11:25.597Z,99122.66
2024-04-22T00:13:57.626Z,99117.41
2024-04-22T00:16:24.731Z,99118.97
2024-04-22T00:18:54.217Z,99118.91
2024-04-22T00:21:21.335Z,99114.66
2024-04-22T00:23:51.024Z,99115.47
2024-04-22T00:26:18.040Z,99114.19
2024-04-22T00:28:47.714Z,99097.59
2024-04-22T00:31:17.145Z,99126.78
2024-04-22T00:33:46.716Z,99120.63
2024-04-22T00:36:13.581Z,99104.84
2024-04-22T00:38:43.000Z,99116.13
2024-04-22T00:41:09.777Z,99119.69
2024-04-22T00:43:39.566Z,99123.19
2024-04-22T00:46:07.665Z,99092.94
2024-04-22T00:48:40.290Z,99121.53
2024-04-22T00:51:07.224Z,99117.06
2024-04-22T00:53:37.441Z,99113.25
2024-04-22T00:56:05.259Z,99075.03
2024-04-22T00:58:35.099Z,99116.38
2024-04-22T01:01:03.847Z,99117.69
2024-04-22T01:03:33.934Z,99113.47
2024-04-22T01:06:03.503Z,99123.53
2024-04-22T01:08:33.055Z,99122.53
2024-04-22T01:10:59.941Z,99115.47
2024-04-22T01:13:29.488Z,99116.31
2024-04-22T01:15:56.321Z,99116.75
2024-04-22T01:18:25.797Z,99114.22
2024-04-22T01:20:52.658Z,99114.59
2024-04-22T01:23:24.957Z,99114.44
2024-04-22T01:25:55.958Z,99108.13
2024-04-22T01:28:25.574Z,99100.75
2024-04-22T01:30:52.514Z,99119.50
2024-04-22T01:33:22.113Z,99112.34
2024-04-22T01:35:49.156Z,99115.75
2024-04-22T01:38:19.057Z,99117.31
2024-04-22T01:40:48.498Z,99121.38
2024-04-22T01:43:18.141Z,99113.13
2024-04-22T01:45:45.031Z,99076.78
2024-04-22T01:48:14.724Z,99111.06
2024-04-22T01:50:41.551Z,99122.88
2024-04-22T01:53:11.121Z,99119.94
2024-04-22T01:55:38.177Z,99105.28
2024-04-22T01:58:10.386Z,99095.72
2024-04-22T02:00:38.389Z,99111.97
2024-04-22T02:03:08.074Z,99120.63
2024-04-22T02:05:34.875Z,99110.28
2024-04-22T02:08:04.233Z,99104.72
2024-04-22T02:10:31.328Z,99105.97
2024-04-22T02:13:00.754Z,99113.69
2024-04-22T02:15:30.705Z,99114.56
2024-04-22T02:18:01.796Z,99107.53
2024-04-22T02:20:28.789Z,99107.31
2024-04-22T02:22:58.457Z,99104.31
2024-04-22T02:25:25.382Z,99102.47
2024-04-22T02:27:55.578Z,99059.19
2024-04-22T02:30:22.367Z,99099.78
2024-04-22T02:32:54.494Z,99101.16
2024-04-22T02:35:21.279Z,99107.97
2024-04-22T02:37:50.768Z,99100.34
2024-04-22T02:40:17.619Z,99105.44
2024-04-22T02:42:47.302Z,99104.50
2024-04-22T02:45:14.682Z,99109.16
2024-04-22T02:47:44.160Z,99101.28
2024-04-22T02:50:14.373Z,99106.28
2024-04-22T02:52:44.140Z,99106.16
2024-04-22T02:55:11.359Z,99107.97
2024-04-22T02:57:41.093Z,99085.47
2024-04-22T03:00:08.805Z,99099.09
2024-04-22T03:02:39.120Z,99111.66
2024-04-22T03:05:06.171Z,99096.78
2024-04-22T03:07:38.318Z,99090.94
2024-04-22T03:10:05.816Z,99088.53
2024-04-22T03:12:36.136Z,99071.06
2024-04-22T03:15:03.907Z,99091.25
2024-04-22T03:17:33.682Z,99089.66
2024-04-22T03:20:00.612Z,99075.50
2024-04-22T03:22:29.977Z,99092.06
2024-04-22T03:25:00.946Z,99098.38
2024-04-22T03:27:30.675Z,99095.56
2024-04-22T03:29:57.620Z,99087.94
2024-04-22T03:32:27.485Z,99073.38
2024-04-22T03:34:54.720Z,99090.81
2024-04-22T03:37:24.176Z,99083.78
2024-04-22T03:39:53.630Z,99041.56
2024-04-22T03:42:25.863Z,99088.00
2024-04-22T03:44:55.532Z,99088.97
2024-04-22T03:47:41.086Z,99091.63
2024-04-22T03:50:10.621Z,99098.16
2024-04-22T03:52:40.239Z,99092.22
2024-04-22T03:55:09.827Z,99091.06
2024-04-22T03:57:42.181Z,99082.28
2024-04-22T04:00:09.945Z,99085.72
2024-04-22T04:02:39.416Z,99065.31
2024-04-22T04:05:06.546Z,99084.50
2024-04-22T04:07:35.974Z,99087.69
2024-04-22T04:10:02.970Z,99087.25
2024-04-22T04:12:32.657Z,99090.13
2024-04-22T04:15:02.068Z,99091.47
2024-04-22T04:17:31.780Z,99085.16
2024-04-22T04:19:58.700Z,99084.25
2024-04-22T04:22:28.446Z,99047.91
2024-04-22T04:24:55.575Z,99071.84
2024-04-22T04:27:25.094Z,99081.22
2024-04-22T04:29:52.867Z,99074.44
2024-04-22T04:32:25.322Z,99083.28
2024-04-22T04:34:53.350Z,99093.66
2024-04-22T04:37:23.007Z,99080.53
2024-04-22T04:39:50.670Z,99093.81
2024-04-22T04:42:20.221Z,99062.88
2024-04-22T04:44:47.319Z,99101.03
2024-04-22T04:47:17.135Z,99091.41
2024-04-22T04:49:47.118Z,99110.44
2024-04-22T04:52:16.708Z,99101.41
2024-04-22T04:54:43.492Z,99095.63
2024-04-22T04:57:13.082Z,99099.03
2024-04-22T04:59:39.864Z,99099.25
2024-04-22T05:02:09.815Z,99097.59
2024-04-22T05:04:36.774Z,99106.38
2024-04-22T05:07:09.828Z,99107.41
2024-04-22T05:09:37.387Z,99105.66
2024-04-22T05:12:07.554Z,99096.56
2024-04-22T05:14:34.417Z,99109.41
2024-04-22T05:17:04.036Z,99109.72
2024-04-22T05:19:30.902Z,99098.50
2024-04-22T05:22:00.706Z,99109.94
2024-04-22T05:24:30.193Z,99112.59
2024-04-22T05:26:59.825Z,99113.06
2024-04-22T05:29:26.736Z,99116.75
2024-04-22T05:31:56.628Z,99119.25
2024-04-22T05:34:53.626Z,99108.06
2024-04-22T05:37:23.104Z,99116.81
2024-04-22T05:39:55.156Z,99115.47
2024-04-22T05:42:24.844Z,99113.59
2024-04-22T05:44:54.309Z,99114.50
2024-04-22T05:47:23.905Z,99122.13
2024-04-22T05:49:51.099Z,99114.50
2024-04-22T05:52:21.469Z,99117.03
2024-04-22T05:54:51.517Z,99117.03
2024-04-22T05:57:20.918Z,99112.78
2024-04-22T05:59:50.387Z,99092.72
2024-04-22T06:02:19.984Z,99071.13
2024-04-22T06:04:46.845Z,99120.50
2024-04-22T06:07:16.402Z,99124.09
2024-04-22T06:09:43.303Z,99123.03
2024-04-22T06:12:18.776Z,99131.56
2024-04-22T06:14:49.421Z,99128.97
2024-04-22T06:17:18.900Z,99124.47
2024-04-22T06:19:45.773Z,99130.81
2024-04-22T06:22:15.220Z,99126.44
2024-04-22T06:24:42.031Z,99136.66
2024-04-22T06:27:11.654Z,99129.06
2024-04-22T06:29:38.747Z,99139.41
2024-04-22T06:32:10.962Z,99132.16
2024-04-22T06:34:37.863Z,99139.84
2024-04-22T06:37:07.883Z,99139.25
2024-04-22T06:39:34.754Z,99131.75
2024-04-22T06:42:04.343Z,99145.59
2024-04-22T06:44:31.118Z,99135.63
2024-04-22T06:47:01.779Z,99145.66
2024-04-22T06:49:31.265Z,99145.38
2024-04-22T06:52:00.935Z,99145.06
2024-04-22T06:54:27.813Z,99139.34
2024-04-22T06:56:57.609Z,99141.91
2024-04-22T06:59:24.474Z,99145.50
2024-04-22T07:01:53.920Z,99137.31
2024-04-22T07:04:21.234Z,99146.28
2024-04-22T07:06:53.283Z,99143.91
2024-04-22T07:09:20.316Z,99141.66
2024-04-22T07:11:49.743Z,99137.75
2024-04-22T07:14:20.764Z,99135.50
2024-04-22T07:16:57.116Z,99140.31
2024-04-22T07:19:24.072Z,99139.09
2024-04-22T07:21:57.583Z,99137.63
2024-04-22T07:24:26.654Z,99141.25
2024-04-22T07:26:57.953Z,99145.47
2024-04-22T07:29:25.358Z,99142.81
2024-04-22T07:31:55.594Z,99142.25
2024-04-22T07:34:23.111Z,99132.84
2024-04-22T07:37:05.382Z,99145.19
2024-04-22T07:39:35.583Z,99148.75
2024-04-22T07:42:05.419Z,99140.09
2024-04-22T07:44:35.213Z,99142.00
2024-04-22T07:47:02.111Z,99138.88
2024-04-22T07:49:31.494Z,99149.78
2024-04-22T07:52:01.201Z,99153.91
2024-04-22T07:54:33.002Z,99153.03
2024-04-22T07:57:02.987Z,99154.56
2024-04-22T07:59:30.324Z,99151.75
2024-04-22T08:02:00.605Z,99147.59
2024-04-22T08:04:28.007Z,99101.66
2024-04-22T08:07:04.168Z,99145.91
2024-04-22T08:09:31.301Z,99126.25
2024-04-22T08:12:02.716Z,99151.09
2024-04-22T08:14:29.800Z,99139.94
2024-04-22T08:16:59.281Z,99151.81
2024-04-22T08:19:26.363Z,99134.75
2024-04-22T08:21:55.763Z,99154.63
2024-04-22T08:24:26.505Z,99148.03
2024-04-22T08:26:57.473Z,99141.28
2024-04-22T08:29:26.132Z,99152.63
2024-04-22T08:31:56.063Z,99133.16
2024-04-22T08:34:22.856Z,99142.50
2024-04-22T08:36:52.373Z,99146.91
2024-04-22T08:39:19.116Z,99149.53
2024-04-22T08:41:51.468Z,99151.28
2024-04-22T08:44:18.655Z,99148.72
2024-04-22T08:46:48.052Z,99140.44
2024-04-22T08:49:15.306Z,99141.84
2024-04-22T08:51:45.168Z,99135.28
2024-04-22T08:54:12.493Z,99152.97
2024-04-22T08:56:42.674Z,99152.59
2024-04-22T08:59:21.790Z,99154.06
2024-04-22T09:02:02.612Z,99151.16
2024-04-22T09:04:29.621Z,99153.09
2024-04-22T09:06:59.363Z,99160.81
2024-04-22T09:09:38.185Z,99146.13
2024-04-22T09:12:20.933Z,99147.25
2024-04-22T09:15:00.570Z,99149.63
2024-04-22T09:17:30.434Z,99131.91
2024-04-22T09:19:57.785Z,99149.34
2024-04-22T09:22:27.422Z,99150.59
2024-04-22T09:24:54.538Z,99148.50
2024-04-22T09:27:27.847Z,99131.88
2024-04-22T09:30:05.536Z,99130.72
2024-04-22T09:32:36.303Z,99133.53
2024-04-22T09:35:13.565Z,99132.44
2024-04-22T09:37:47.482Z,99132.56
2024-04-22T09:40:16.866Z,99129.06
2024-04-22T09:42:47.438Z,99123.34
2024-04-22T09:45:17.408Z,99132.69
2024-04-22T09:47:48.076Z,99119.47
2024-04-22T09:50:18.298Z,99126.66
2024-04-22T09:52:51.414Z,99099.41
2024-04-22T09:55:21.187Z,99116.53
2024-04-22T09:57:50.081Z,99106.44
2024-04-22T10:00:23.164Z,99102.97
2024-04-22T10:02:52.205Z,99092.75
2024-04-22T10:05:26.289Z,99091.94
2024-04-22T10:07:54.429Z,99091.91
2024-04-22T10:10:24.117Z,99087.66
2024-04-22T10:13:24.425Z,99098.72
2024-04-22T10:15:56.809Z,99091.91
2024-04-22T10:18:24.020Z,99083.69
2024-04-22T10:20:56.676Z,99093.88
2024-04-22T10:23:23.914Z,99076.25
2024-04-22T10:25:53.425Z,99069.59
2024-04-22T10:28:20.613Z,99066.78
2024-04-22T10:30:50.248Z,99056.72
2024-04-22T10:33:19.678Z,99051.66
2024-04-22T10:35:49.560Z,99053.16
2024-04-22T10:38:16.571Z,99053.28
2024-04-22T10:40:46.417Z,99043.53
2024-04-22T10:43:13.280Z,99045.31
2024-04-22T10:45:43.024Z,99047.59
2024-04-22T10:48:15.806Z,99047.91
2024-04-22T10:50:52.617Z,99044.50
2024-04-22T10:53:21.388Z,99040.09
2024-04-22T10:55:51.045Z,99039.41
2024-04-22T10:58:18.286Z,99040.19
2024-04-22T11:00:51.836Z,99042.88
2024-04-22T11:03:19.743Z,99041.28
2024-04-22T11:05:52.125Z,99036.16
2024-04-22T11:08:19.679Z,99029.28
2024-04-22T11:10:49.657Z,99034.38
2024-04-22T11:13:16.916Z,99025.66
2024-04-22T11:15:46.838Z,99020.66
2024-04-22T11:18:13.668Z,99010.31
2024-04-22T11:20:43.604Z,99011.22
2024-04-22T11:23:13.357Z,98999.25
2024-04-22T11:25:42.867Z,99010.22
2024-04-22T11:28:09.711Z,99006.09
2024-04-22T11:30:41.799Z,99012.94
2024-04-22T11:33:09.272Z,99006.97
2024-04-22T11:35:39.545Z,99006.97
2024-04-22T11:38:13.773Z,99013.00
2024-04-22T11:40:46.737Z,99006.00
2024-04-22T11:43:13.910Z,99006.50
2024-04-22T11:45:43.977Z,98987.06
2024-04-22T11:48:11.120Z,98989.13
2024-04-22T11:50:41.147Z,98996.94
2024-04-22T11:53:14.930Z,98988.59
2024-04-22T11:55:54.204Z,98988.00
2024-04-22T11:58:21.483Z,98976.00
2024-04-22T12:00:51.095Z,98988.06
2024-04-22T12:03:17.886Z,98988.03
2024-04-22T12:05:47.629Z,98985.34
2024-04-22T12:08:14.518Z,98988.72
2024-04-22T12:10:44.038Z,98979.34
2024-04-22T12:13:14.179Z,98981.13
2024-04-22T12:15:43.996Z,98952.84
2024-04-22T12:18:10.933Z,98974.28
2024-04-22T12:20:40.613Z,98967.44
2024-04-22T12:23:07.493Z,98980.34
2024-04-22T12:25:37.216Z,98956.34
2024-04-22T12:28:13.428Z,98969.22
2024-04-22T12:30:50.084Z,98967.50
2024-04-22T12:33:17.152Z,98969.13
2024-04-22T12:35:46.808Z,98943.34
2024-04-22T12:38:13.607Z,98962.88
2024-04-22T12:40:43.367Z,98955.84
2024-04-22T12:43:10.643Z,98966.94
2024-04-22T12:45:43.020Z,98969.53
2024-04-22T12:48:31.222Z,98959.16
2024-04-22T12:51:01.619Z,98964.50
2024-04-22T12:53:31.674Z,98961.94
2024-04-22T12:56:02.048Z,98959.31
2024-04-22T12:58:32.461Z,98963.56
2024-04-22T13:01:05.649Z,98965.03
2024-04-22T13:03:38.327Z,98959.91
2024-04-22T13:06:08.484Z,98932.13
2024-04-22T13:08:37.862Z,98962.78
2024-04-22T13:11:05.410Z,98957.00
2024-04-22T13:13:35.071Z,98952.06
2024-04-22T13:16:04.645Z,98951.56
2024-04-22T13:18:34.130Z,98953.34
2024-04-22T13:21:06.500Z,98948.34
2024-04-22T13:23:33.430Z,98949.31
2024-04-22T13:26:03.013Z,98950.22
2024-04-22T13:28:30.058Z,98954.56
2024-04-22T13:30:59.589Z,98942.53
2024-04-22T13:33:26.562Z,98938.22
2024-04-22T13:35:55.982Z,98950.25
2024-04-22T13:38:25.445Z,98935.69
2024-04-22T13:40:55.280Z,98939.91
2024-04-22T13:43:24.698Z,98949.16
2024-04-22T13:45:54.348Z,98942.13
2024-04-22T13:48:21.366Z,98943.78
2024-04-22T13:50:50.947Z,98930.88
2024-04-22T13:53:26.106Z,98916.16
2024-04-22T13:56:02.459Z,98944.47
2024-04-22T13:58:29.292Z,98926.66
2024-04-22T14:00:58.870Z,98937.78
2024-04-22T14:03:25.819Z,98921.41
2024-04-22T14:05:55.215Z,98925.78
2024-04-22T14:08:22.283Z,98928.47
2024-04-22T14:10:51.709Z,98926.59
2024-04-22T14:13:21.546Z,98924.19
2024-04-22T14:15:51.005Z,98926.91
2024-04-22T14:18:17.994Z,98912.47
2024-04-22T14:20:47.634Z,98916.00
2024-04-22T14:23:15.182Z,98915.22
2024-04-22T14:25:47.132Z,98905.78
2024-04-22T14:28:14.241Z,98916.94
2024-04-22T14:30:46.350Z,98906.63
2024-04-22T14:33:14.337Z,98907.47
2024-04-22T14:35:44.005Z,98897.19
2024-04-22T14:38:11.425Z,98899.72
2024-04-22T14:40:40.959Z,98899.72
2024-04-22T14:43:07.819Z,98902.31
2024-04-22T14:45:37.586Z,98909.16
2024-04-22T14:48:08.000Z,98900.47
2024-04-22T14:50:37.491Z,98903.00
2024-04-22T14:53:07.708Z,98903.00
2024-04-22T14:55:40.529Z,98899.69
2024-04-22T14:58:07.806Z,98874.75
2024-04-22T15:00:37.657Z,98888.59
2024-04-22T15:03:07.311Z,98898.03
2024-04-22T15:05:37.400Z,98861.13
2024-04-22T15:08:04.947Z,98886.78
2024-04-22T15:10:34.708Z,98885.97
2024-04-22T15:13:01.554Z,98866.19
2024-04-22T15:15:30.984Z,98891.03
2024-04-22T15:17:57.954Z,98891.09
2024-04-22T15:20:31.513Z,98873.94
2024-04-22T15:22:58.600Z,98886.00
2024-04-22T15:25:28.150Z,98881.75
2024-04-22T15:27:54.955Z,98875.78
2024-04-22T15:30:24.563Z,98879.22
2024-04-22T15:32:51.517Z,98865.50
2024-04-22T15:35:21.034Z,98863.78
2024-04-22T15:37:52.500Z,98864.66
2024-04-22T15:40:22.055Z,98865.50
2024-04-22T15:42:53.602Z,98864.59
2024-04-22T15:45:21.125Z,98824.31
2024-04-22T15:47:50.740Z,98853.44
2024-04-22T15:50:21.291Z,98862.88
2024-04-22T15:52:51.031Z,98867.13
2024-04-22T15:55:20.887Z,98856.88
2024-04-22T15:57:50.767Z,98852.50
2024-04-22T16:00:23.665Z,98862.81
2024-04-22T16:02:50.457Z,98857.66
2024-04-22T16:05:20.090Z,98861.91
2024-04-22T16:07:47.049Z,98863.59
2024-04-22T16:10:19.264Z,98869.53
2024-04-22T16:12:46.386Z,98864.38
2024-04-22T16:15:15.791Z,98847.22
2024-04-22T16:17:42.819Z,98859.16
2024-04-22T16:20:12.727Z,98861.66
2024-04-22T16:22:39.554Z,98856.56
2024-04-22T16:25:09.316Z,98821.44
2024-04-22T16:27:39.027Z,98865.16
2024-04-22T16:30:09.296Z,98848.88
2024-04-22T16:32:36.221Z,98853.16
2024-04-22T16:35:05.876Z,98850.63
2024-04-22T16:37:33.033Z,98849.72
2024-04-22T16:40:02.659Z,98854.00
2024-04-22T16:42:29.484Z,98856.41
2024-04-22T16:45:01.549Z,98854.78
2024-04-22T16:47:28.652Z,98853.06
2024-04-22T16:49:58.138Z,98852.25
2024-04-22T16:52:25.022Z,98811.06
2024-04-22T16:54:54.463Z,98854.78
2024-04-22T16:57:21.703Z,98853.09
2024-04-22T16:59:51.177Z,98852.22
2024-04-22T17:02:20.884Z,98858.06
2024-04-22T17:04:50.627Z,98862.13
2024-04-22T17:07:17.477Z,98819.88
2024-04-22T17:09:48.109Z,98865.81
2024-04-22T17:12:15.068Z,98873.22
2024-04-22T17:14:44.961Z,98874.84
2024-04-22T17:17:11.834Z,98845.34
2024-04-22T17:19:43.912Z,98872.91
2024-04-22T17:22:10.993Z,98873.63
2024-04-22T17:24:40.501Z,98882.22
2024-04-22T17:27:08.607Z,98884.69
2024-04-22T17:29:38.193Z,98882.00
2024-04-22T17:32:05.926Z,98874.94
2024-04-22T17:34:36.231Z,98884.97
2024-04-22T17:37:06.108Z,98890.75
2024-04-22T17:39:35.907Z,98879.63
2024-04-22T17:42:02.899Z,98875.22
2024-04-22T17:44:32.316Z,98882.03
2024-04-22T17:46:59.809Z,98880.19
2024-04-22T17:49:29.995Z,98862.22
2024-04-22T17:51:56.893Z,98875.88
2024-04-22T17:54:29.123Z,98875.97
2024-04-22T17:57:02.307Z,98880.97
2024-04-22T17:59:36.767Z,98874.94
2024-04-22T18:02:04.033Z,98870.56
2024-04-22T18:04:34.034Z,98867.06
2024-04-22T18:07:00.904Z,98881.56
2024-04-22T18:09:34.460Z,98871.97
2024-04-22T18:12:02.210Z,98874.50
2024-04-22T18:14:31.663Z,98875.31
2024-04-22T18:16:59.720Z,98886.34
2024-04-22T18:19:29.371Z,98882.94
2024-04-22T18:22:01.602Z,98880.34
2024-04-22T18:24:36.443Z,98886.13
2024-04-22T18:27:03.418Z,98888.00
2024-04-22T18:29:32.991Z,98893.81
2024-04-22T18:31:59.749Z,98888.47
2024-04-22T18:34:29.372Z,98889.34
2024-04-22T18:36:56.611Z,98889.13
2024-04-22T18:39:26.044Z,98890.78
2024-04-22T18:41:55.677Z,98893.31
2024-04-22T18:44:25.929Z,98893.09
2024-04-22T18:46:52.896Z,98849.47
2024-04-22T18:49:22.393Z,98897.59
2024-04-22T18:51:49.481Z,98900.28
2024-04-22T18:54:18.900Z,98904.25
2024-04-22T18:56:49.066Z,98903.41
2024-04-22T18:59:19.539Z,98910.94
2024-04-22T19:01:49.048Z,98907.44
2024-04-22T19:04:16.483Z,98906.44
2024-04-22T19:06:45.956Z,98913.97
2024-04-22T19:09:12.957Z,98912.34
2024-04-22T19:11:43.399Z,98913.94
2024-04-22T19:14:10.337Z,98889.50
2024-04-22T19:16:42.487Z,98918.59
2024-04-22T19:19:09.314Z,98919.06
2024-04-22T19:21:39.625Z,98933.41
2024-04-22T19:24:07.501Z,98915.19
2024-04-22T19:26:37.077Z,98933.00
2024-04-22T19:29:03.956Z,98928.69
2024-04-22T19:31:34.663Z,98933.53
2024-04-22T19:34:05.062Z,98942.03
2024-04-22T19:36:34.513Z,98936.78
2024-04-22T19:39:01.478Z,98914.28
2024-04-22T19:41:31.661Z,98944.50
2024-04-22T19:44:00.743Z,98918.56
2024-04-22T19:46:32.186Z,98942.63
2024-04-22T19:49:00.043Z,98937.38
2024-04-22T19:51:32.363Z,98945.22
2024-04-22T19:53:59.102Z,98932.25
2024-04-22T19:56:29.078Z,98941.81
2024-04-22T19:58:56.822Z,98944.59
2024-04-22T20:01:26.282Z,98952.38
2024-04-22T20:03:53.191Z,98945.84
2024-04-22T20:06:22.703Z,98944.09
2024-04-22T20:08:52.578Z,98950.94
2024-04-22T20:11:22.230Z,98937.88
2024-04-22T20:13:49.134Z,98951.69
2024-04-22T20:16:20.726Z,98942.41
2024-04-22T20:18:54.961Z,98945.78
2024-04-22T20:21:24.752Z,98937.06
2024-04-22T20:23:58.194Z,98940.38
2024-04-22T20:26:25.378Z,98938.13
2024-04-22T20:28:55.259Z,98949.06
2024-04-22T20:31:22.500Z,98944.72
2024-04-22T20:33:52.532Z,98945.56
2024-04-22T20:36:21.606Z,98943.09
2024-04-22T20:38:51.069Z,98938.75
2024-04-22T20:41:20.643Z,98946.28
2024-04-22T20:43:50.498Z,98939.31
2024-04-22T20:46:17.446Z,98940.28
2024-04-22T20:48:47.102Z,98930.88
2024-04-22T20:51:14.273Z,98930.72
2024-04-22T20:53:43.880Z,98928.81
2024-04-22T20:56:11.019Z,98926.19
2024-04-22T20:58:43.045Z,98932.88
2024-04-22T21:01:10.716Z,98939.47
2024-04-22T21:03:40.307Z,98933.22
2024-04-22T21:06:08.314Z,98937.81
2024-04-22T21:08:37.720Z,98934.09
2024-04-22T21:11:05.078Z,98934.13
2024-04-22T21:13:47.504Z,98930.75
2024-04-22T21:16:14.283Z,98932.31
2024-04-22T21:18:43.969Z,98885.78
2024-04-22T21:21:10.817Z,98927.81
2024-04-22T21:23:42.731Z,98919.09
2024-04-22T21:26:09.817Z,98922.13
2024-04-22T21:28:39.464Z,98920.09
2024-04-22T21:31:09.105Z,98901.78
2024-04-22T21:36:09.551Z,98918.22
2024-04-22T21:38:38.947Z,98916.16
2024-04-22T21:41:05.805Z,98917.53
2024-04-22T21:43:36.093Z,98920.53
2024-04-22T21:46:04.155Z,98921.97
2024-04-22T21:48:36.628Z,98916.06
2024-04-22T21:51:03.604Z,98915.38
2024-04-22T21:53:33.070Z,98915.19
2024-04-22T21:56:06.518Z,98922.69
2024-04-22T21:59:13.553Z,98930.03
2024-04-22T22:02:18.090Z,98914.59
2024-04-22T22:05:24.951Z,98914.59
2024-04-22T22:07:51.883Z,98910.31
2024-04-22T22:10:24.195Z,98914.50
2024-04-22T22:12:51.450Z,98917.66
2024-04-22T22:15:21.302Z,98914.63
2024-04-22T22:17:50.444Z,98918.41
2024-04-22T22:20:21.659Z,98918.78
2024-04-22T22:22:48.449Z,98920.03
2024-04-22T22:25:18.117Z,98904.75
2024-04-22T22:27:51.347Z,98932.88
2024-04-22T22:30:22.159Z,98915.47
2024-04-22T22:32:48.954Z,98925.50
2024-04-22T22:35:18.726Z,98928.88
2024-04-22T22:37:45.542Z,98927.50
2024-04-22T22:40:15.092Z,98931.31
2024-04-22T22:42:44.024Z,98934.97
2024-04-22T22:45:16.113Z,98924.84
2024-04-22T22:47:44.230Z,98919.41
2024-04-22T22:50:13.903Z,98925.75
2024-04-22T22:52:40.772Z,98927.00
2024-04-22T22:55:10.207Z,98921.53
2024-04-22T22:57:36.965Z,98926.13
2024-04-22T23:00:07.246Z,98924.44
2024-04-22T23:02:36.688Z,98929.94
2024-04-22T23:05:06.310Z,98927.38
2024-04-22T23:07:33.429Z,98885.78
2024-04-22T23:10:02.817Z,98927.25
2024-04-22T23:12:29.583Z,98923.47
2024-04-22T23:14:59.183Z,98924.91
2024-04-22T23:17:25.963Z,98853.41
2024-04-22T23:19:58.213Z,98908.59
2024-04-22T23:22:25.042Z,98917.66
2024-04-22T23:24:54.637Z,98885.84
2024-04-22T23:27:21.382Z,98914.75
2024-04-22T23:29:51.681Z,98910.38
2024-04-22T23:32:18.498Z,98908.59
2024-04-22T23:34:47.920Z,98907.22
2024-04-22T23:37:19.542Z,98906.78
2024-04-22T23:39:49.242Z,98909.09
2024-04-22T23:42:16.104Z,98884.84
2024-04-22T23:44:45.487Z,98906.72
2024-04-22T23:47:12.331Z,98891.41
2024-04-22T23:49:41.813Z,98902.94
2024-04-22T23:52:09.818Z,98902.31
2024-04-22T23:54:41.899Z,98900.03
2024-04-22T23:57:08.745Z,98812.63
2024-04-22T23:59:38.129Z,98904.25
